sensor_id;sensor_type;location;lat;lon;timestamp;temperature;humidity
20147;DHT22;10234;50.856;15.716;2023-02-23T00:00:31;-0.70;99.90
20147;DHT22;10234;50.856;15.716;2023-02-23T00:02:59;-0.70;99.90
20147;DHT22;10234;50.856;15.716;2023-02-23T00:05:27;-0.70;99.90
20147;DHT22;10234;50.856;15.716;2023-02-23T00:07:55;-0.80;99.90
20147;DHT22;10234;50.856;15.716;2023-02-23T00:10:23;0.00;99.90
20147;DHT22;10234;50.856;15.716;2023-02-23T00:12:56;-0.80;99.90
20147;DHT22;10234;50.856;15.716;2023-02-23T00:15:24;-0.80;99.90
20147;DHT22;10234;50.856;15.716;2023-02-23T00:17:52;-0.90;99.90
20147;DHT22;10234;50.856;15.716;2023-02-23T00:20:20;-0.80;99.90
20147;DHT22;10234;50.856;15.716;2023-02-23T00:22:52;-0.80;99.90
20147;DHT22;10234;50.856;15.716;2023-02-23T00:30:17;-1.10;99.90
20147;DHT22;10234;50.856;15.716;2023-02-23T00:32:44;-0.80;99.90
20147;DHT22;10234;50.856;15.716;2023-02-23T00:37:44;-1.00;99.90
20147;DHT22;10234;50.856;15.716;2023-02-23T00:40:12;-0.90;99.90
20147;DHT22;10234;50.856;15.716;2023-02-23T00:42:42;-0.80;99.90
20147;DHT22;10234;50.856;15.716;2023-02-23T00:45:10;-0.70;99.90
20147;DHT22;10234;50.856;15.716;2023-02-23T00:47:39;-0.60;99.90
20147;DHT22;10234;50.856;15.716;2023-02-23T00:50:08;-0.90;99.90
20147;DHT22;10234;50.856;15.716;2023-02-23T00:55:06;-0.60;99.90
20147;DHT22;10234;50.856;15.716;2023-02-23T00:57:34;-0.50;99.90
20147;DHT22;10234;50.856;15.716;2023-02-23T01:00:01;-0.60;99.90
20147;DHT22;10234;50.856;15.716;2023-02-23T01:02:39;-0.50;99.90
20147;DHT22;10234;50.856;15.716;2023-02-23T01:05:07;-0.50;99.90
20147;DHT22;10234;50.856;15.716;2023-02-23T01:07:35;-0.50;99.90
20147;DHT22;10234;50.856;15.716;2023-02-23T01:10:03;-0.60;99.90
20147;DHT22;10234;50.856;15.716;2023-02-23T01:17:39;-0.40;99.90
20147;DHT22;10234;50.856;15.716;2023-02-23T01:20:09;-0.50;99.90
20147;DHT22;10234;50.856;15.716;2023-02-23T01:22:40;-0.30;99.90
20147;DHT22;10234;50.856;15.716;2023-02-23T01:27:37;-0.70;99.90
20147;DHT22;10234;50.856;15.716;2023-02-23T01:30:04;-0.70;99.90
20147;DHT22;10234;50.856;15.716;2023-02-23T01:32:33;-0.70;99.90
20147;DHT22;10234;50.856;15.716;2023-02-23T01:35:02;-0.60;99.90
20147;DHT22;10234;50.856;15.716;2023-02-23T01:39:57;-0.80;99.90
20147;DHT22;10234;50.856;15.716;2023-02-23T01:42:24;-0.70;99.90
20147;DHT22;10234;50.856;15.716;2023-02-23T01:45:23;-0.80;99.90
20147;DHT22;10234;50.856;15.716;2023-02-23T01:47:53;-0.90;99.90
20147;DHT22;10234;50.856;15.716;2023-02-23T01:50:24;-1.00;99.90
20147;DHT22;10234;50.856;15.716;2023-02-23T01:52:52;-0.70;99.90
20147;DHT22;10234;50.856;15.716;2023-02-23T01:55:21;-1.30;99.90
20147;DHT22;10234;50.856;15.716;2023-02-23T01:57:53;-1.00;99.90
20147;DHT22;10234;50.856;15.716;2023-02-23T02:00:23;0.30;99.90
20147;DHT22;10234;50.856;15.716;2023-02-23T02:02:52;-1.10;99.90
20147;DHT22;10234;50.856;15.716;2023-02-23T02:05:20;-1.00;99.90
20147;DHT22;10234;50.856;15.716;2023-02-23T02:07:49;-0.90;99.90
20147;DHT22;10234;50.856;15.716;2023-02-23T02:10:24;-0.50;99.90
20147;DHT22;10234;50.856;15.716;2023-02-23T02:13:12;-1.50;99.90
20147;DHT22;10234;50.856;15.716;2023-02-23T02:16:03;0.30;99.90
20147;DHT22;10234;50.856;15.716;2023-02-23T02:18:39;-1.20;99.90
20147;DHT22;10234;50.856;15.716;2023-02-23T02:21:30;-1.30;99.90
20147;DHT22;10234;50.856;15.716;2023-02-23T02:24:23;-1.10;99.90
20147;DHT22;10234;50.856;15.716;2023-02-23T02:27:04;-1.00;99.90
20147;DHT22;10234;50.856;15.716;2023-02-23T02:33:11;-1.10;99.90
20147;DHT22;10234;50.856;15.716;2023-02-23T02:36:05;-1.00;99.90
20147;DHT22;10234;50.856;15.716;2023-02-23T02:38:46;0.10;99.90
20147;DHT22;10234;50.856;15.716;2023-02-23T02:41:22;-1.00;99.90
20147;DHT22;10234;50.856;15.716;2023-02-23T02:43:58;-1.10;99.90
20147;DHT22;10234;50.856;15.716;2023-02-23T02:46:30;-1.10;99.90
20147;DHT22;10234;50.856;15.716;2023-02-23T02:49:02;-1.00;99.90
20147;DHT22;10234;50.856;15.716;2023-02-23T02:51:34;-1.10;99.90
20147;DHT22;10234;50.856;15.716;2023-02-23T02:54:13;-1.00;99.90
20147;DHT22;10234;50.856;15.716;2023-02-23T02:56:46;0.30;99.90
20147;DHT22;10234;50.856;15.716;2023-02-23T02:59:16;-1.00;99.90
20147;DHT22;10234;50.856;15.716;2023-02-23T03:07:35;-1.00;99.90
20147;DHT22;10234;50.856;15.716;2023-02-23T03:10:30;-1.10;99.90
20147;DHT22;10234;50.856;15.716;2023-02-23T03:13:25;-0.30;99.90
20147;DHT22;10234;50.856;15.716;2023-02-23T03:16:20;-1.20;99.90
20147;DHT22;10234;50.856;15.716;2023-02-23T03:19:13;-1.10;99.90
20147;DHT22;10234;50.856;15.716;2023-02-23T03:22:05;-1.10;99.90
20147;DHT22;10234;50.856;15.716;2023-02-23T03:24:55;-1.10;99.90
20147;DHT22;10234;50.856;15.716;2023-02-23T03:27:50;0.20;99.90
20147;DHT22;10234;50.856;15.716;2023-02-23T03:30:41;-1.00;99.90
20147;DHT22;10234;50.856;15.716;2023-02-23T03:33:31;-0.90;99.90
20147;DHT22;10234;50.856;15.716;2023-02-23T03:36:24;-1.20;99.90
20147;DHT22;10234;50.856;15.716;2023-02-23T03:39:14;-1.10;99.90
20147;DHT22;10234;50.856;15.716;2023-02-23T03:42:03;-1.10;99.90
20147;DHT22;10234;50.856;15.716;2023-02-23T03:44:51;-1.10;99.90
20147;DHT22;10234;50.856;15.716;2023-02-23T03:47:37;-1.10;99.90
20147;DHT22;10234;50.856;15.716;2023-02-23T03:50:29;-1.10;99.90
20147;DHT22;10234;50.856;15.716;2023-02-23T03:53:18;-1.00;99.90
20147;DHT22;10234;50.856;15.716;2023-02-23T03:56:08;-1.10;99.90
20147;DHT22;10234;50.856;15.716;2023-02-23T03:58:56;-1.10;99.90
20147;DHT22;10234;50.856;15.716;2023-02-23T04:01:43;-1.20;99.90
20147;DHT22;10234;50.856;15.716;2023-02-23T04:07:14;-1.10;99.90
20147;DHT22;10234;50.856;15.716;2023-02-23T04:10:00;-1.00;99.90
20147;DHT22;10234;50.856;15.716;2023-02-23T04:12:50;-1.10;99.90
20147;DHT22;10234;50.856;15.716;2023-02-23T04:15:37;-0.30;99.90
20147;DHT22;10234;50.856;15.716;2023-02-23T04:18:06;-1.30;99.90
20147;DHT22;10234;50.856;15.716;2023-02-23T04:30:22;-1.30;99.90
20147;DHT22;10234;50.856;15.716;2023-02-23T04:32:50;-1.30;99.90
20147;DHT22;10234;50.856;15.716;2023-02-23T04:35:18;-1.20;99.90
20147;DHT22;10234;50.856;15.716;2023-02-23T04:40:12;-1.20;99.90
20147;DHT22;10234;50.856;15.716;2023-02-23T04:42:39;-1.30;99.90
20147;DHT22;10234;50.856;15.716;2023-02-23T04:45:07;-1.20;99.90
20147;DHT22;10234;50.856;15.716;2023-02-23T04:47:34;-1.40;99.90
20147;DHT22;10234;50.856;15.716;2023-02-23T04:50:01;-1.20;99.90
20147;DHT22;10234;50.856;15.716;2023-02-23T04:52:29;-1.10;99.90
20147;DHT22;10234;50.856;15.716;2023-02-23T04:54:56;-1.10;99.90
20147;DHT22;10234;50.856;15.716;2023-02-23T04:59:51;-0.90;99.90
20147;DHT22;10234;50.856;15.716;2023-02-23T05:02:18;-0.90;99.90
20147;DHT22;10234;50.856;15.716;2023-02-23T05:09:40;-1.00;99.90
20147;DHT22;10234;50.856;15.716;2023-02-23T05:14:34;-1.00;99.90
20147;DHT22;10234;50.856;15.716;2023-02-23T05:19:28;-1.10;99.90
20147;DHT22;10234;50.856;15.716;2023-02-23T05:21:55;-0.60;99.90
20147;DHT22;10234;50.856;15.716;2023-02-23T05:24:22;-1.10;99.90
20147;DHT22;10234;50.856;15.716;2023-02-23T05:26:51;-1.00;99.90
20147;DHT22;10234;50.856;15.716;2023-02-23T05:31:45;-0.90;99.90
20147;DHT22;10234;50.856;15.716;2023-02-23T05:36:41;-0.80;99.90
20147;DHT22;10234;50.856;15.716;2023-02-23T05:39:08;-0.70;99.90
20147;DHT22;10234;50.856;15.716;2023-02-23T05:41:35;-0.90;99.90
20147;DHT22;10234;50.856;15.716;2023-02-23T05:44:03;-0.90;99.90
20147;DHT22;10234;50.856;15.716;2023-02-23T05:48:58;-2.90;99.90
20147;DHT22;10234;50.856;15.716;2023-02-23T05:51:26;-0.90;99.90
20147;DHT22;10234;50.856;15.716;2023-02-23T05:53:53;-0.80;99.90
20147;DHT22;10234;50.856;15.716;2023-02-23T05:56:20;-0.80;99.90
20147;DHT22;10234;50.856;15.716;2023-02-23T05:58:47;-1.00;99.90
20147;DHT22;10234;50.856;15.716;2023-02-23T06:01:16;-0.90;99.90
20147;DHT22;10234;50.856;15.716;2023-02-23T06:03:43;-0.80;99.90
20147;DHT22;10234;50.856;15.716;2023-02-23T06:06:11;-0.70;99.90
20147;DHT22;10234;50.856;15.716;2023-02-23T06:13:32;-0.30;99.90
20147;DHT22;10234;50.856;15.716;2023-02-23T06:18:28;-0.60;99.90
20147;DHT22;10234;50.856;15.716;2023-02-23T06:20:58;-0.60;99.90
20147;DHT22;10234;50.856;15.716;2023-02-23T06:23:25;-0.50;99.90
20147;DHT22;10234;50.856;15.716;2023-02-23T06:30:46;-0.30;99.90
20147;DHT22;10234;50.856;15.716;2023-02-23T06:35:42;-0.30;99.90
20147;DHT22;10234;50.856;15.716;2023-02-23T06:38:09;-0.40;99.90
20147;DHT22;10234;50.856;15.716;2023-02-23T06:40:37;-0.60;99.90
20147;DHT22;10234;50.856;15.716;2023-02-23T06:43:03;-0.30;99.90
20147;DHT22;10234;50.856;15.716;2023-02-23T06:45:31;-0.20;99.90
20147;DHT22;10234;50.856;15.716;2023-02-23T06:47:58;-0.10;99.90
20147;DHT22;10234;50.856;15.716;2023-02-23T06:50:25;0.00;99.90
20147;DHT22;10234;50.856;15.716;2023-02-23T06:52:56;0.10;99.90
20147;DHT22;10234;50.856;15.716;2023-02-23T06:55:23;0.10;99.90
20147;DHT22;10234;50.856;15.716;2023-02-23T06:57:50;0.20;99.90
20147;DHT22;10234;50.856;15.716;2023-02-23T07:00:19;0.30;99.90
20147;DHT22;10234;50.856;15.716;2023-02-23T07:10:10;0.60;99.90
20147;DHT22;10234;50.856;15.716;2023-02-23T07:12:37;0.60;99.90
20147;DHT22;10234;50.856;15.716;2023-02-23T07:15:05;0.80;99.90
20147;DHT22;10234;50.856;15.716;2023-02-23T07:17:32;0.90;99.90
20147;DHT22;10234;50.856;15.716;2023-02-23T07:19:59;1.00;99.90
20147;DHT22;10234;50.856;15.716;2023-02-23T07:22:26;1.10;99.90
20147;DHT22;10234;50.856;15.716;2023-02-23T07:24:55;1.20;99.90
20147;DHT22;10234;50.856;15.716;2023-02-23T07:27:23;1.50;99.90
20147;DHT22;10234;50.856;15.716;2023-02-23T07:29:52;1.30;99.90
20147;DHT22;10234;50.856;15.716;2023-02-23T07:34:46;1.70;99.90
20147;DHT22;10234;50.856;15.716;2023-02-23T07:37:14;1.90;99.90
20147;DHT22;10234;50.856;15.716;2023-02-23T07:39:41;2.10;99.90
20147;DHT22;10234;50.856;15.716;2023-02-23T07:42:08;2.30;99.90
20147;DHT22;10234;50.856;15.716;2023-02-23T07:44:37;2.50;99.90
20147;DHT22;10234;50.856;15.716;2023-02-23T07:47:04;2.70;99.90
20147;DHT22;10234;50.856;15.716;2023-02-23T07:49:31;3.10;99.90
20147;DHT22;10234;50.856;15.716;2023-02-23T07:54:26;3.50;99.90
20147;DHT22;10234;50.856;15.716;2023-02-23T07:59:20;4.00;99.90
20147;DHT22;10234;50.856;15.716;2023-02-23T08:01:48;4.20;99.90
20147;DHT22;10234;50.856;15.716;2023-02-23T08:04:16;4.20;99.90
20147;DHT22;10234;50.856;15.716;2023-02-23T08:09:10;4.80;99.90
20147;DHT22;10234;50.856;15.716;2023-02-23T08:11:37;5.30;99.90
20147;DHT22;10234;50.856;15.716;2023-02-23T08:14:05;3.80;99.90
20147;DHT22;10234;50.856;15.716;2023-02-23T08:16:32;6.10;99.90
20147;DHT22;10234;50.856;15.716;2023-02-23T08:19:00;6.80;99.90
20147;DHT22;10234;50.856;15.716;2023-02-23T08:21:28;7.60;99.90
20147;DHT22;10234;50.856;15.716;2023-02-23T08:26:22;8.20;99.90
20147;DHT22;10234;50.856;15.716;2023-02-23T08:28:50;8.50;99.90
20147;DHT22;10234;50.856;15.716;2023-02-23T08:33:46;8.20;99.90
20147;DHT22;10234;50.856;15.716;2023-02-23T08:36:14;8.60;99.90
20147;DHT22;10234;50.856;15.716;2023-02-23T08:46:04;9.60;99.90
20147;DHT22;10234;50.856;15.716;2023-02-23T08:50:58;10.10;99.90
20147;DHT22;10234;50.856;15.716;2023-02-23T08:53:27;12.20;99.90
20147;DHT22;10234;50.856;15.716;2023-02-23T08:55:56;10.90;99.90
20147;DHT22;10234;50.856;15.716;2023-02-23T09:03:18;11.50;99.90
20147;DHT22;10234;50.856;15.716;2023-02-23T09:08:13;11.70;99.90
20147;DHT22;10234;50.856;15.716;2023-02-23T09:10:41;12.30;99.90
20147;DHT22;10234;50.856;15.716;2023-02-23T09:18:05;12.60;99.90
20147;DHT22;10234;50.856;15.716;2023-02-23T09:20:32;13.30;99.90
20147;DHT22;10234;50.856;15.716;2023-02-23T09:22:59;13.90;99.90
20147;DHT22;10234;50.856;15.716;2023-02-23T09:25:26;13.90;99.90
20147;DHT22;10234;50.856;15.716;2023-02-23T09:27:55;13.60;99.90
20147;DHT22;10234;50.856;15.716;2023-02-23T09:30:24;13.60;99.90
20147;DHT22;10234;50.856;15.716;2023-02-23T09:35:21;13.90;99.90
20147;DHT22;10234;50.856;15.716;2023-02-23T09:37:51;14.10;99.90
20147;DHT22;10234;50.856;15.716;2023-02-23T09:40:21;14.10;99.90
20147;DHT22;10234;50.856;15.716;2023-02-23T09:42:57;14.10;99.90
20147;DHT22;10234;50.856;15.716;2023-02-23T09:45:30;14.50;99.90
20147;DHT22;10234;50.856;15.716;2023-02-23T09:48:11;14.80;99.90
20147;DHT22;10234;50.856;15.716;2023-02-23T09:50:41;15.00;99.90
20147;DHT22;10234;50.856;15.716;2023-02-23T09:53:18;15.00;99.90
20147;DHT22;10234;50.856;15.716;2023-02-23T09:55:47;15.30;99.90
20147;DHT22;10234;50.856;15.716;2023-02-23T09:58:21;15.50;99.90
20147;DHT22;10234;50.856;15.716;2023-02-23T10:01:02;15.30;99.90
20147;DHT22;10234;50.856;15.716;2023-02-23T10:03:32;15.70;99.90
20147;DHT22;10234;50.856;15.716;2023-02-23T10:06:03;16.20;99.90
20147;DHT22;10234;50.856;15.716;2023-02-23T10:08:43;17.70;99.90
20147;DHT22;10234;50.856;15.716;2023-02-23T10:11:21;18.70;98.70
20147;DHT22;10234;50.856;15.716;2023-02-23T10:13:57;19.70;91.50
20147;DHT22;10234;50.856;15.716;2023-02-23T10:16:36;20.10;80.40
20147;DHT22;10234;50.856;15.716;2023-02-23T10:19:09;20.70;79.90
20147;DHT22;10234;50.856;15.716;2023-02-23T10:21:40;21.40;74.50
20147;DHT22;10234;50.856;15.716;2023-02-23T10:24:11;21.40;72.00
20147;DHT22;10234;50.856;15.716;2023-02-23T10:26:41;21.90;73.60
20147;DHT22;10234;50.856;15.716;2023-02-23T10:29:21;22.30;68.00
20147;DHT22;10234;50.856;15.716;2023-02-23T10:31:50;21.90;68.70
20147;DHT22;10234;50.856;15.716;2023-02-23T10:34:20;22.50;70.00
20147;DHT22;10234;50.856;15.716;2023-02-23T10:36:50;22.40;64.20
20147;DHT22;10234;50.856;15.716;2023-02-23T10:44:18;21.30;68.10
20147;DHT22;10234;50.856;15.716;2023-02-23T10:46:49;21.70;68.90
20147;DHT22;10234;50.856;15.716;2023-02-23T10:49:19;22.10;65.20
20147;DHT22;10234;50.856;15.716;2023-02-23T10:51:48;22.70;63.70
20147;DHT22;10234;50.856;15.716;2023-02-23T10:54:38;23.40;60.90
20147;DHT22;10234;50.856;15.716;2023-02-23T10:57:10;24.30;59.10
20147;DHT22;10234;50.856;15.716;2023-02-23T10:59:41;24.50;58.20
20147;DHT22;10234;50.856;15.716;2023-02-23T11:02:24;24.90;54.10
20147;DHT22;10234;50.856;15.716;2023-02-23T11:04:54;24.80;54.40
20147;DHT22;10234;50.856;15.716;2023-02-23T11:07:23;24.30;56.10
20147;DHT22;10234;50.856;15.716;2023-02-23T11:12:22;22.70;57.00
20147;DHT22;10234;50.856;15.716;2023-02-23T11:14:52;22.50;56.00
20147;DHT22;10234;50.856;15.716;2023-02-23T11:17:29;22.30;58.30
20147;DHT22;10234;50.856;15.716;2023-02-23T11:20:02;22.40;58.60
20147;DHT22;10234;50.856;15.716;2023-02-23T11:22:32;22.20;56.80
20147;DHT22;10234;50.856;15.716;2023-02-23T11:29:57;21.90;57.60
20147;DHT22;10234;50.856;15.716;2023-02-23T11:32:32;22.20;59.80
20147;DHT22;10234;50.856;15.716;2023-02-23T11:35:13;22.80;57.80
20147;DHT22;10234;50.856;15.716;2023-02-23T11:37:40;22.70;57.10
20147;DHT22;10234;50.856;15.716;2023-02-23T11:40:18;22.50;58.40
20147;DHT22;10234;50.856;15.716;2023-02-23T11:42:51;22.60;57.50
20147;DHT22;10234;50.856;15.716;2023-02-23T11:45:22;22.20;58.90
20147;DHT22;10234;50.856;15.716;2023-02-23T11:47:50;21.90;60.00
20147;DHT22;10234;50.856;15.716;2023-02-23T11:50:23;21.40;57.30
20147;DHT22;10234;50.856;15.716;2023-02-23T11:52:55;20.70;57.90
20147;DHT22;10234;50.856;15.716;2023-02-23T11:55:23;20.80;57.20
20147;DHT22;10234;50.856;15.716;2023-02-23T11:57:50;20.80;58.30
20147;DHT22;10234;50.856;15.716;2023-02-23T12:00:25;21.40;58.20
20147;DHT22;10234;50.856;15.716;2023-02-23T12:02:56;21.90;57.90
20147;DHT22;10234;50.856;15.716;2023-02-23T12:05:26;21.80;57.00
20147;DHT22;10234;50.856;15.716;2023-02-23T12:07:58;21.70;56.00
20147;DHT22;10234;50.856;15.716;2023-02-23T12:10:29;20.90;56.70
20147;DHT22;10234;50.856;15.716;2023-02-23T12:13:02;20.40;59.10
20147;DHT22;10234;50.856;15.716;2023-02-23T12:15:41;20.10;61.30
20147;DHT22;10234;50.856;15.716;2023-02-23T12:18:18;20.20;62.40
20147;DHT22;10234;50.856;15.716;2023-02-23T12:20:53;20.30;62.90
20147;DHT22;10234;50.856;15.716;2023-02-23T12:23:24;20.60;64.80
20147;DHT22;10234;50.856;15.716;2023-02-23T12:25:55;20.30;63.10
20147;DHT22;10234;50.856;15.716;2023-02-23T12:28:28;19.90;60.80
20147;DHT22;10234;50.856;15.716;2023-02-23T12:31:03;19.40;63.60
20147;DHT22;10234;50.856;15.716;2023-02-23T12:33:36;19.40;65.30
20147;DHT22;10234;50.856;15.716;2023-02-23T12:36:12;19.50;66.10
20147;DHT22;10234;50.856;15.716;2023-02-23T12:38:48;19.30;62.60
20147;DHT22;10234;50.856;15.716;2023-02-23T12:41:20;19.20;62.60
20147;DHT22;10234;50.856;15.716;2023-02-23T12:43:54;18.70;62.40
20147;DHT22;10234;50.856;15.716;2023-02-23T12:46:30;18.20;64.30
20147;DHT22;10234;50.856;15.716;2023-02-23T12:49:03;17.70;65.80
20147;DHT22;10234;50.856;15.716;2023-02-23T12:51:34;17.10;68.40
20147;DHT22;10234;50.856;15.716;2023-02-23T12:56:42;16.50;69.60
20147;DHT22;10234;50.856;15.716;2023-02-23T12:59:27;16.30;73.40
20147;DHT22;10234;50.856;15.716;2023-02-23T13:02:02;16.20;71.90
20147;DHT22;10234;50.856;15.716;2023-02-23T13:04:45;16.20;71.50
20147;DHT22;10234;50.856;15.716;2023-02-23T13:07:20;16.10;71.60
20147;DHT22;10234;50.856;15.716;2023-02-23T13:09:57;16.00;76.40
20147;DHT22;10234;50.856;15.716;2023-02-23T13:12:35;16.00;76.20
20147;DHT22;10234;50.856;15.716;2023-02-23T13:15:17;16.20;73.10
20147;DHT22;10234;50.856;15.716;2023-02-23T13:17:51;16.30;75.50
20147;DHT22;10234;50.856;15.716;2023-02-23T13:20:25;16.30;80.10
20147;DHT22;10234;50.856;15.716;2023-02-23T13:22:57;16.60;84.40
20147;DHT22;10234;50.856;15.716;2023-02-23T13:25:31;16.70;76.60
20147;DHT22;10234;50.856;15.716;2023-02-23T13:28:03;17.00;74.40
20147;DHT22;10234;50.856;15.716;2023-02-23T13:30:32;17.00;72.30
20147;DHT22;10234;50.856;15.716;2023-02-23T13:33:10;16.90;74.30
20147;DHT22;10234;50.856;15.716;2023-02-23T13:35:39;16.60;74.40
20147;DHT22;10234;50.856;15.716;2023-02-23T13:38:13;16.50;73.30
20147;DHT22;10234;50.856;15.716;2023-02-23T13:40:47;16.30;74.20
20147;DHT22;10234;50.856;15.716;2023-02-23T13:43:19;16.10;80.40
20147;DHT22;10234;50.856;15.716;2023-02-23T13:46:14;16.00;87.30
20147;DHT22;10234;50.856;15.716;2023-02-23T13:48:50;15.80;84.00
20147;DHT22;10234;50.856;15.716;2023-02-23T13:51:24;15.90;86.80
20147;DHT22;10234;50.856;15.716;2023-02-23T13:54:00;15.80;87.30
20147;DHT22;10234;50.856;15.716;2023-02-23T13:56:29;15.60;89.00
20147;DHT22;10234;50.856;15.716;2023-02-23T13:58:59;15.30;90.30
20147;DHT22;10234;50.856;15.716;2023-02-23T14:01:29;15.50;87.90
20147;DHT22;10234;50.856;15.716;2023-02-23T14:04:00;15.30;87.30
20147;DHT22;10234;50.856;15.716;2023-02-23T14:06:30;14.80;91.10
20147;DHT22;10234;50.856;15.716;2023-02-23T14:09:05;13.90;93.00
20147;DHT22;10234;50.856;15.716;2023-02-23T14:11:45;14.60;99.90
20147;DHT22;10234;50.856;15.716;2023-02-23T14:14:15;14.80;99.40
20147;DHT22;10234;50.856;15.716;2023-02-23T14:17:39;14.40;98.40
20147;DHT22;10234;50.856;15.716;2023-02-23T14:20:19;14.40;97.20
20147;DHT22;10234;50.856;15.716;2023-02-23T14:26:13;14.30;99.90
20147;DHT22;10234;50.856;15.716;2023-02-23T14:28:43;14.00;99.50
20147;DHT22;10234;50.856;15.716;2023-02-23T14:31:18;13.90;99.90
20147;DHT22;10234;50.856;15.716;2023-02-23T14:33:55;13.80;99.90
20147;DHT22;10234;50.856;15.716;2023-02-23T14:36:35;13.80;99.90
20147;DHT22;10234;50.856;15.716;2023-02-23T14:39:07;13.50;99.90
20147;DHT22;10234;50.856;15.716;2023-02-23T14:41:39;13.40;99.90
20147;DHT22;10234;50.856;15.716;2023-02-23T14:44:12;13.30;99.90
20147;DHT22;10234;50.856;15.716;2023-02-23T14:46:47;13.20;99.90
20147;DHT22;10234;50.856;15.716;2023-02-23T14:49:18;13.10;99.90
20147;DHT22;10234;50.856;15.716;2023-02-23T14:51:47;13.10;99.90
20147;DHT22;10234;50.856;15.716;2023-02-23T14:54:26;13.00;99.90
20147;DHT22;10234;50.856;15.716;2023-02-23T14:56:56;12.90;99.90
20147;DHT22;10234;50.856;15.716;2023-02-23T14:59:25;12.80;99.90
20147;DHT22;10234;50.856;15.716;2023-02-23T15:01:54;12.70;99.90
20147;DHT22;10234;50.856;15.716;2023-02-23T15:04:22;13.10;99.90
20147;DHT22;10234;50.856;15.716;2023-02-23T15:06:54;12.50;99.90
20147;DHT22;10234;50.856;15.716;2023-02-23T15:09:29;12.20;99.90
20147;DHT22;10234;50.856;15.716;2023-02-23T15:11:59;12.80;99.90
20147;DHT22;10234;50.856;15.716;2023-02-23T15:14:27;12.50;99.90
20147;DHT22;10234;50.856;15.716;2023-02-23T15:19:25;11.90;99.90
20147;DHT22;10234;50.856;15.716;2023-02-23T15:21:56;11.80;99.90
20147;DHT22;10234;50.856;15.716;2023-02-23T15:24:26;11.80;99.90
20147;DHT22;10234;50.856;15.716;2023-02-23T15:26:53;11.90;99.90
20147;DHT22;10234;50.856;15.716;2023-02-23T15:29:23;11.60;99.90
20147;DHT22;10234;50.856;15.716;2023-02-23T15:31:52;11.40;99.90
20147;DHT22;10234;50.856;15.716;2023-02-23T15:34:21;11.60;99.90
20147;DHT22;10234;50.856;15.716;2023-02-23T15:36:52;11.70;99.90
20147;DHT22;10234;50.856;15.716;2023-02-23T15:39:32;11.40;99.90
20147;DHT22;10234;50.856;15.716;2023-02-23T15:42:02;11.50;99.90
20147;DHT22;10234;50.856;15.716;2023-02-23T15:47:00;11.10;99.90
20147;DHT22;10234;50.856;15.716;2023-02-23T15:49:31;11.00;99.90
20147;DHT22;10234;50.856;15.716;2023-02-23T15:52:01;10.70;99.90
20147;DHT22;10234;50.856;15.716;2023-02-23T15:54:33;10.70;99.90
20147;DHT22;10234;50.856;15.716;2023-02-23T15:57:03;10.90;99.90
20147;DHT22;10234;50.856;15.716;2023-02-23T15:59:35;10.30;99.90
20147;DHT22;10234;50.856;15.716;2023-02-23T16:02:08;10.30;99.90
20147;DHT22;10234;50.856;15.716;2023-02-23T16:04:39;10.20;99.90
20147;DHT22;10234;50.856;15.716;2023-02-23T16:07:15;9.90;99.90
20147;DHT22;10234;50.856;15.716;2023-02-23T16:09:50;9.90;99.90
20147;DHT22;10234;50.856;15.716;2023-02-23T16:12:19;9.90;99.90
20147;DHT22;10234;50.856;15.716;2023-02-23T16:14:49;9.50;99.90
20147;DHT22;10234;50.856;15.716;2023-02-23T16:17:29;9.60;99.90
20147;DHT22;10234;50.856;15.716;2023-02-23T16:20:09;9.50;99.90
20147;DHT22;10234;50.856;15.716;2023-02-23T16:22:39;9.60;99.90
20147;DHT22;10234;50.856;15.716;2023-02-23T16:25:12;9.30;99.90
20147;DHT22;10234;50.856;15.716;2023-02-23T16:27:41;9.20;99.90
20147;DHT22;10234;50.856;15.716;2023-02-23T16:30:16;9.40;99.90
20147;DHT22;10234;50.856;15.716;2023-02-23T16:32:44;9.10;99.90
20147;DHT22;10234;50.856;15.716;2023-02-23T16:35:16;8.90;99.90
20147;DHT22;10234;50.856;15.716;2023-02-23T16:37:59;8.60;99.90
20147;DHT22;10234;50.856;15.716;2023-02-23T16:40:28;8.70;99.90
20147;DHT22;10234;50.856;15.716;2023-02-23T16:45:24;8.90;99.90
20147;DHT22;10234;50.856;15.716;2023-02-23T16:47:54;8.20;99.90
20147;DHT22;10234;50.856;15.716;2023-02-23T16:50:26;8.50;99.90
20147;DHT22;10234;50.856;15.716;2023-02-23T16:55:22;8.60;99.90
20147;DHT22;10234;50.856;15.716;2023-02-23T16:57:53;8.30;99.90
20147;DHT22;10234;50.856;15.716;2023-02-23T17:00:22;8.20;99.90
20147;DHT22;10234;50.856;15.716;2023-02-23T17:02:50;8.10;99.90
20147;DHT22;10234;50.856;15.716;2023-02-23T17:05:20;8.30;99.90
20147;DHT22;10234;50.856;15.716;2023-02-23T17:10:17;7.90;99.90
20147;DHT22;10234;50.856;15.716;2023-02-23T17:12:52;7.70;99.90
20147;DHT22;10234;50.856;15.716;2023-02-23T17:15:21;7.80;99.90
20147;DHT22;10234;50.856;15.716;2023-02-23T17:20:17;9.80;99.90
20147;DHT22;10234;50.856;15.716;2023-02-23T17:22:46;7.50;99.90
20147;DHT22;10234;50.856;15.716;2023-02-23T17:30:10;7.30;99.90
20147;DHT22;10234;50.856;15.716;2023-02-23T17:35:05;7.10;99.90
20147;DHT22;10234;50.856;15.716;2023-02-23T17:40:04;7.00;99.90
20147;DHT22;10234;50.856;15.716;2023-02-23T17:47:29;6.80;99.90
20147;DHT22;10234;50.856;15.716;2023-02-23T17:52:23;6.60;99.90
20147;DHT22;10234;50.856;15.716;2023-02-23T17:57:18;6.70;99.90
20147;DHT22;10234;50.856;15.716;2023-02-23T18:02:14;6.60;99.90
20147;DHT22;10234;50.856;15.716;2023-02-23T18:04:44;6.40;99.90
20147;DHT22;10234;50.856;15.716;2023-02-23T18:12:06;6.20;99.90
20147;DHT22;10234;50.856;15.716;2023-02-23T18:19:30;6.00;99.90
20147;DHT22;10234;50.856;15.716;2023-02-23T18:21:58;6.00;99.90
20147;DHT22;10234;50.856;15.716;2023-02-23T18:24:27;5.80;99.90
20147;DHT22;10234;50.856;15.716;2023-02-23T18:29:27;5.70;99.90
20147;DHT22;10234;50.856;15.716;2023-02-23T18:31:54;6.30;99.90
20147;DHT22;10234;50.856;15.716;2023-02-23T18:39:21;5.80;99.90
20147;DHT22;10234;50.856;15.716;2023-02-23T18:41:49;5.80;99.90
20147;DHT22;10234;50.856;15.716;2023-02-23T18:44:16;5.80;99.90
20147;DHT22;10234;50.856;15.716;2023-02-23T18:46:45;5.80;99.90
20147;DHT22;10234;50.856;15.716;2023-02-23T18:49:16;5.80;99.90
20147;DHT22;10234;50.856;15.716;2023-02-23T18:56:43;5.70;99.90
20147;DHT22;10234;50.856;15.716;2023-02-23T18:59:10;5.60;99.90
20147;DHT22;10234;50.856;15.716;2023-02-23T19:01:37;5.80;99.90
20147;DHT22;10234;50.856;15.716;2023-02-23T19:04:06;5.80;99.90
20147;DHT22;10234;50.856;15.716;2023-02-23T19:06:34;5.70;99.90
20147;DHT22;10234;50.856;15.716;2023-02-23T19:11:35;5.40;99.90
20147;DHT22;10234;50.856;15.716;2023-02-23T19:14:06;5.40;99.90
20147;DHT22;10234;50.856;15.716;2023-02-23T19:16:34;5.40;99.90